Time;durP1;ratioP1;P1;durP2;ratioP2;P2;SDS_P1;SDS_P2;PMS_P1;PMS_P2;Temp;Humidity;BMP_temperature;BMP_pressure;BME280_temperature;BME280_humidity;BME280_pressure;Samples;Min_cycle;Max_cycle;Signal;HPM_P1;HPM_P2
2022/08/23 00:01:33;;;;;;;12.48;4.35;;;;;;;23.04;75.41;100485.25;4946121;28;101948;-53
2022/08/23 00:04:01;;;;;;;;;;;;;;;23.03;75.42;100494.75;4958378;28;101987;-53
2022/08/23 00:06:28;;;;;;;9.80;4.50;;;;;;;23.04;75.36;100496.38;4966489;28;103898;-53
2022/08/23 00:08:55;;;;;;;12.77;4.15;;;;;;;23.04;75.53;100496.38;4976778;28;102296;-53
2022/08/23 00:11:29;;;;;;;17.20;4.82;;;;;;;23.03;75.56;100500.31;4975820;28;102143;-53
2022/08/23 00:13:57;;;;;;;10.18;5.43;;;;;;;23.03;75.59;100508.63;4972500;28;102118;-53
2022/08/23 00:16:23;;;;;;;11.77;5.50;;;;;;;23.04;75.43;100513.03;4955519;28;103897;-53
2022/08/23 00:18:50;;;;;;;11.15;4.50;;;;;;;23.03;75.70;100512.22;4956380;28;102132;-53
2022/08/23 00:21:16;;;;;;;12.50;4.78;;;;;;;23.03;75.63;100516.97;4956133;28;102387;-53
2022/08/23 00:23:43;;;;;;;7.40;4.80;;;;;;;23.03;75.57;100512.22;4956780;28;102265;-53
2022/08/23 00:26:10;;;;;;;9.93;4.30;;;;;;;23.02;75.84;100516.16;4955526;28;103888;-53
2022/08/23 00:28:39;;;;;;;7.93;4.38;;;;;;;23.03;75.63;100522.50;4950582;28;102433;-53
2022/08/23 00:31:06;;;;;;;13.85;4.78;;;;;;;23.02;75.58;100516.16;4953231;28;101971;-53
2022/08/23 00:33:32;;;;;;;10.43;4.47;;;;;;;23.03;75.37;100516.97;4990762;27;102923;-53
2022/08/23 00:35:59;;;;;;;18.05;5.32;;;;;;;23.03;75.54;100519.75;4990679;27;104031;-53
2022/08/23 00:38:25;;;;;;;13.30;5.05;;;;;;;23.03;75.57;100519.75;4937213;28;102128;-53
2022/08/23 00:40:52;;;;;;;11.40;4.32;;;;;;;23.03;75.46;100528.06;4936700;28;102106;-53
2022/08/23 00:49:11;;;;;;;16.00;5.85;;;;;;;23.03;75.46;100539.16;4937660;28;102370;-52
2022/08/23 00:51:46;;;;;;;14.98;5.70;;;;;;;23.03;75.42;100541.94;4936537;28;102221;-53
2022/08/23 00:54:14;;;;;;;13.80;5.15;;;;;;;23.02;75.76;100541.16;4958247;28;102901;-52
2022/08/23 00:56:41;;;;;;;15.68;5.15;;;;;;;23.03;75.51;100533.63;4974862;28;103873;-52
2022/08/23 00:59:08;;;;;;;12.73;4.70;;;;;;;23.02;75.69;100529.25;4975070;28;101977;-53
2022/08/23 01:01:36;;;;;;;11.13;4.55;;;;;;;23.02;75.69;100540.34;4975289;28;102084;-53
2022/08/23 01:04:03;;;;;;;13.80;4.25;;;;;;;23.01;75.85;100531.22;4976176;28;102818;-54
2022/08/23 01:06:33;;;;;;;10.40;4.78;;;;;;;23.01;75.75;100541.50;4957580;28;103919;-53
2022/08/23 01:09:05;;;;;;;12.50;4.65;;;;;;;23.02;75.68;100540.34;4956013;28;102382;-53
2022/08/23 01:11:36;;;;;;;8.60;4.18;;;;;;;23.01;75.54;100541.50;4955287;28;102041;-53
2022/08/23 01:14:09;;;;;;;14.32;4.80;;;;;;;23.01;75.73;100535.97;4956534;28;102349;-53
2022/08/23 01:16:43;;;;;;;8.70;3.80;;;;;;;23.02;75.69;100529.25;4954628;28;103896;-53
2022/08/23 01:19:16;;;;;;;10.63;4.20;;;;;;;22.99;75.74;100527.97;4955249;28;102152;-53
2022/08/23 01:21:50;;;;;;;10.10;4.38;;;;;;;23.00;75.74;100531.56;4953839;28;102275;-53
2022/08/23 01:24:19;;;;;;;11.45;4.55;;;;;;;23.00;75.64;100528.78;4956583;28;102181;-53
2022/08/23 01:26:46;;;;;;;9.23;4.35;;;;;;;22.99;75.38;100533.53;4954339;28;104114;-53
2022/08/23 01:29:15;;;;;;;11.90;4.40;;;;;;;22.99;75.68;100529.97;4955492;27;102391;-53
2022/08/23 01:31:42;;;;;;;;;;;;;;;22.99;75.75;100524.41;4955409;28;102224;-53
2022/08/23 01:34:11;;;;;;;16.25;4.55;;;;;;;22.99;75.57;100532.72;5011607;27;102180;-53
2022/08/23 01:36:37;;;;;;;13.15;4.95;;;;;;;23.00;75.67;100528.78;4960160;27;103906;-53
2022/08/23 01:39:04;;;;;;;11.57;4.40;;;;;;;22.98;75.73;100525.56;4951371;28;102652;-53
2022/08/23 01:41:33;;;;;;;12.60;4.83;;;;;;;22.99;75.81;100535.50;4954767;28;102105;-53
2022/08/23 01:43:59;;;;;;;13.93;4.73;;;;;;;22.98;75.67;100531.13;4956226;28;102211;-53
2022/08/23 01:46:26;;;;;;;10.90;4.85;;;;;;;22.98;75.83;100531.94;4954528;28;103914;-54
2022/08/23 01:48:57;;;;;;;10.25;4.32;;;;;;;22.99;75.73;100529.97;4955485;28;101966;-53
2022/08/23 01:51:24;;;;;;;12.20;3.88;;;;;;;22.99;75.50;100529.97;4959027;28;101933;-53
2022/08/23 01:53:50;;;;;;;15.23;5.03;;;;;;;22.98;75.70;100531.13;4975455;28;102247;-53
2022/08/23 01:56:20;;;;;;;9.10;3.92;;;;;;;22.97;75.72;100529.50;4961797;28;104210;-53
2022/08/23 01:58:49;;;;;;;14.65;4.80;;;;;;;22.97;75.65;100523.94;4935697;28;102109;-53
2022/08/23 02:01:16;;;;;;;16.45;4.70;;;;;;;22.98;75.79;100528.34;4938327;28;102040;-53
2022/08/23 02:03:43;;;;;;;8.45;4.22;;;;;;;22.97;75.80;100533.09;4959629;28;102536;-53
2022/08/23 02:06:09;;;;;;;13.82;4.88;;;;;;;22.98;75.66;100533.91;4973993;28;103914;-53
2022/08/23 02:11:23;;;;;;;8.00;4.15;;;;;;;22.96;75.62;100527.91;4974136;28;102177;-53
2022/08/23 02:13:54;;;;;;;8.60;4.35;;;;;;;22.97;75.59;100532.28;4954399;28;102582;-53
2022/08/23 02:16:22;;;;;;;10.85;4.03;;;;;;;22.96;75.61;100527.91;4950100;28;103924;-52
2022/08/23 02:18:49;;;;;;;10.68;3.95;;;;;;;22.96;75.77;100539.81;4954065;28;101881;-53
2022/08/23 02:21:16;;;;;;;11.80;5.00;;;;;;;22.97;75.69;100537.81;4954336;28;101946;-53
2022/08/23 02:23:43;;;;;;;7.13;3.60;;;;;;;22.95;75.75;100542.94;4955527;28;102619;-53
2022/08/23 02:26:09;;;;;;;14.43;4.65;;;;;;;22.95;75.46;100532.66;4953865;28;103876;-53
2022/08/23 02:28:37;;;;;;;11.48;3.90;;;;;;;22.95;75.61;100538.19;4954140;28;102455;-53
2022/08/23 02:31:05;;;;;;;9.65;3.85;;;;;;;22.96;75.72;100527.91;4941625;28;102357;-53
2022/08/23 02:33:31;;;;;;;9.65;3.92;;;;;;;22.96;75.63;100533.44;4975650;27;102583;-53
2022/08/23 02:35:58;;;;;;;13.02;4.78;;;;;;;22.96;75.68;100550.09;5056643;27;103817;-52
2022/08/23 02:38:24;;;;;;;14.27;4.63;;;;;;;22.95;75.58;100548.50;5057411;27;102753;-52
2022/08/23 02:40:51;;;;;;;10.73;4.60;;;;;;;22.96;75.82;100550.09;5024579;27;102548;-53
2022/08/23 02:43:18;;;;;;;12.13;4.40;;;;;;;22.96;75.67;100547.31;4954902;28;102101;-52
2022/08/23 02:45:44;;;;;;;7.78;3.88;;;;;;;22.96;75.71;100555.66;4953859;28;103924;-53
2022/08/23 02:48:12;;;;;;;12.50;4.68;;;;;;;22.96;75.68;100550.09;4954033;28;102568;-53
2022/08/23 02:50:39;;;;;;;11.18;3.75;;;;;;;22.95;75.59;100549.28;4955688;28;102463;-53
2022/08/23 02:53:06;;;;;;;9.10;4.07;;;;;;;22.96;75.75;100552.88;4958575;28;102367;-53
2022/08/23 02:55:32;;;;;;;9.95;4.00;;;;;;;22.96;75.77;100552.88;4956550;28;103895;-52
2022/08/23 02:57:59;;;;;;;14.13;4.30;;;;;;;22.95;75.64;100559.59;4957064;28;102014;-53
2022/08/23 03:00:25;;;;;;;9.82;4.38;;;;;;;22.94;75.74;100552.44;4956869;28;101942;-53
2022/08/23 03:02:52;;;;;;;10.95;4.25;;;;;;;22.95;75.43;100559.59;4957863;28;104010;-53
2022/08/23 03:05:20;;;;;;;9.63;4.07;;;;;;;22.96;75.46;100562.00;4942205;28;103869;-53
2022/08/23 03:07:46;;;;;;;10.43;4.57;;;;;;;22.96;75.59;100561.19;4937404;28;102494;-53
2022/08/23 03:10:15;;;;;;;15.32;4.53;;;;;;;22.96;75.72;100577.84;4937001;28;102122;-53
2022/08/23 03:12:41;;;;;;;10.68;4.10;;;;;;;22.96;75.57;100577.84;4942819;28;102176;-53
2022/08/23 03:15:10;;;;;;;10.18;4.43;;;;;;;22.96;75.54;100566.75;4956221;28;104161;-53
2022/08/23 03:17:37;;;;;;;10.07;4.18;;;;;;;22.96;75.69;100577.84;4956094;28;102070;-53
2022/08/23 03:20:04;;;;;;;10.10;4.10;;;;;;;22.96;75.82;100577.84;4956585;28;102394;-53
2022/08/23 03:22:33;;;;;;;10.27;4.57;;;;;;;22.95;75.64;100587.34;4957556;28;102200;-53
2022/08/23 03:25:00;;;;;;;;;;;;;;;22.95;75.53;100588.16;4960381;28;104025;-53
2022/08/23 03:27:27;;;;;;;5.60;3.20;;;;;;;22.94;75.64;100592.09;4968784;28;102043;-53
2022/08/23 03:29:53;;;;;;;10.88;4.63;;;;;;;22.95;75.49;100598.44;4956224;28;102227;-53
2022/08/23 03:32:20;;;;;;;8.55;3.50;;;;;;;22.95;75.75;100595.66;4966488;28;102490;-53
2022/08/23 03:34:47;;;;;;;8.02;3.97;;;;;;;22.95;75.54;100602.03;5003230;27;103923;-54
2022/08/23 03:37:13;;;;;;;11.68;4.50;;;;;;;22.96;75.41;100616.69;4960583;28;102312;-53
2022/08/23 03:39:41;;;;;;;8.27;4.18;;;;;;;22.96;75.64;100622.25;4940514;28;102314;-54
2022/08/23 03:42:08;;;;;;;13.63;4.60;;;;;;;22.94;75.70;100619.84;4951587;28;102148;-53
2022/08/23 03:44:34;;;;;;;6.25;3.63;;;;;;;22.96;75.58;100611.16;4956155;28;103771;-53
2022/08/23 03:47:01;;;;;;;9.60;3.80;;;;;;;22.94;75.89;100619.03;4956775;28;102578;-53
2022/08/23 03:49:28;;;;;;;7.45;3.80;;;;;;;22.96;75.62;100627.81;4955952;28;101945;-53
2022/08/23 03:51:54;;;;;;;8.45;3.80;;;;;;;22.96;75.72;100622.25;4957383;28;102246;-53
2022/08/23 03:54:21;;;;;;;8.43;3.78;;;;;;;22.96;75.69;100622.25;4966733;28;104200;-53
2022/08/23 03:56:55;;;;;;;7.47;3.63;;;;;;;22.95;75.69;100623.44;4939439;28;101980;-53
2022/08/23 03:59:22;;;;;;;12.25;4.18;;;;;;;22.96;75.82;100620.28;4945618;28;102282;-53
2022/08/23 04:01:49;;;;;;;10.15;3.78;;;;;;;22.96;75.73;100630.56;4956996;28;102481;-53
2022/08/23 04:04:16;;;;;;;10.40;4.47;;;;;;;22.97;75.62;100634.97;4955610;27;103863;-53
2022/08/23 04:06:44;;;;;;;8.63;4.10;;;;;;;22.98;75.60;100622.72;4956459;28;102369;-53
2022/08/23 04:09:11;;;;;;;7.63;4.00;;;;;;;22.97;75.58;100632.19;4955763;27;102412;-53
2022/08/23 04:11:38;;;;;;;9.02;4.28;;;;;;;22.99;75.55;100638.19;4956943;28;102206;-53
2022/08/23 04:14:07;;;;;;;7.22;3.78;;;;;;;22.98;75.62;100640.16;4955484;28;103895;-53
2022/08/23 04:16:37;;;;;;;10.38;3.92;;;;;;;22.98;75.50;100642.94;4955866;28;102612;-53
2022/08/23 04:19:04;;;;;;;14.35;3.92;;;;;;;22.99;75.52;100643.75;4964328;27;102054;-53
2022/08/23 04:21:35;;;;;;;9.15;4.32;;;;;;;22.98;75.63;100644.91;4961208;28;102144;-53
2022/08/23 04:24:02;;;;;;;12.05;4.53;;;;;;;22.99;75.63;100643.75;4955882;28;103969;-53
2022/08/23 04:26:29;;;;;;;12.18;4.25;;;;;;;22.98;75.59;100642.94;4956438;28;102121;-53
2022/08/23 04:28:56;;;;;;;12.60;4.47;;;;;;;22.99;75.53;100638.19;4936963;28;101955;-53
2022/08/23 04:31:28;;;;;;;10.32;4.05;;;;;;;23.00;75.53;100645.34;4953554;28;102584;-53
2022/08/23 04:33:58;;;;;;;8.50;3.80;;;;;;;23.00;75.58;100645.34;5005004;27;108024;-52
2022/08/23 04:36:25;;;;;;;8.50;3.72;;;;;;;22.99;75.67;100640.97;5052533;27;102121;-52
2022/08/23 04:38:51;;;;;;;17.02;4.55;;;;;;;22.99;75.52;100638.19;4955858;27;102344;-52
2022/08/23 04:44:04;;;;;;;11.23;4.53;;;;;;;22.99;75.73;100643.75;4955216;28;103924;-53
2022/08/23 04:46:32;;;;;;;6.67;3.93;;;;;;;23.00;75.45;100639.78;4948186;28;101978;-53
2022/08/23 04:48:59;;;;;;;12.05;4.32;;;;;;;22.99;75.53;100644.53;4956890;28;102623;-52
2022/08/23 04:51:26;;;;;;;9.13;4.28;;;;;;;22.99;75.75;100644.53;4976196;28;102453;-53
2022/08/23 04:53:52;;;;;;;9.77;3.85;;;;;;;22.99;75.61;100643.75;4974561;28;103920;-52
2022/08/23 04:56:19;;;;;;;16.85;4.53;;;;;;;23.00;75.57;100637.03;4973150;28;101991;-53
2022/08/23 04:58:46;;;;;;;11.45;3.83;;;;;;;22.99;75.67;100629.88;4955628;27;101966;-53
2022/08/23 05:01:14;;;;;;;9.98;4.10;;;;;;;23.00;75.58;100635.03;4956166;28;102302;-53
2022/08/23 05:03:43;;;;;;;9.02;4.45;;;;;;;23.00;75.63;100646.16;4946304;28;104030;-53
2022/08/23 05:06:09;;;;;;;9.17;4.30;;;;;;;23.00;75.43;100642.56;4948528;28;102585;-54
2022/08/23 05:08:36;;;;;;;7.90;4.10;;;;;;;23.01;75.58;100646.97;4955743;28;102151;-53
2022/08/23 05:11:04;;;;;;;12.48;4.28;;;;;;;23.02;75.60;100645.81;4956403;28;102288;-53
2022/08/23 05:13:32;;;;;;;9.05;3.92;;;;;;;23.01;75.54;100646.97;4953394;28;104048;-53
2022/08/23 05:15:59;;;;;;;7.20;3.78;;;;;;;23.01;75.63;100642.22;4955570;28;102160;-53
2022/08/23 05:18:27;;;;;;;11.02;3.75;;;;;;;23.02;75.59;100648.59;4957947;28;102412;-53
2022/08/23 05:20:55;;;;;;;9.15;3.92;;;;;;;23.03;75.67;100644.63;4945054;28;102248;-53
2022/08/23 05:23:22;;;;;;;6.28;3.50;;;;;;;23.03;75.62;100650.19;4947677;28;103009;-53
2022/08/23 05:25:48;;;;;;;8.00;3.67;;;;;;;23.03;75.36;100650.19;4975481;27;101873;-53
2022/08/23 05:28:16;;;;;;;8.35;3.95;;;;;;;23.04;75.26;100657.34;4960611;28;101998;-53
2022/08/23 05:30:44;;;;;;;6.40;3.37;;;;;;;23.04;75.39;100651.78;4956220;28;102041;-53
2022/08/23 05:33:11;;;;;;;7.63;3.50;;;;;;;23.06;75.62;100655.03;4954576;27;103937;-53
2022/08/23 05:35:39;;;;;;;8.43;3.83;;;;;;;23.06;75.50;100651.44;4955464;27;102365;-53
2022/08/23 05:38:06;;;;;;;9.20;3.75;;;;;;;23.06;75.38;100649.47;4954976;28;102377;-53
2022/08/23 05:40:33;;;;;;;13.47;4.67;;;;;;;23.07;75.34;100651.09;4955815;28;102329;-53
2022/08/23 05:42:59;;;;;;;7.20;3.33;;;;;;;23.07;75.46;100656.63;4954538;28;104056;-53
2022/08/23 05:45:26;;;;;;;9.50;3.83;;;;;;;23.09;75.34;100654.31;4946049;28;102224;-53
2022/08/23 05:47:52;;;;;;;7.32;3.33;;;;;;;23.09;75.52;100654.31;4952788;28;101905;-53
2022/08/23 05:50:19;;;;;;;8.70;4.00;;;;;;;23.12;75.32;100664.72;4958976;28;102271;-53
2022/08/23 05:52:46;;;;;;;7.80;4.10;;;;;;;23.12;75.00;100650.84;4955154;28;103906;-53
2022/08/23 05:55:14;;;;;;;10.63;3.75;;;;;;;23.16;75.31;100656.47;4953617;28;102504;-53
2022/08/23 05:57:41;;;;;;;5.85;3.60;;;;;;;23.17;74.85;100650.56;4964860;28;102043;-53
2022/08/23 06:00:13;;;;;;;9.63;3.70;;;;;;;23.17;74.99;100661.66;4954808;28;102347;-53
2022/08/23 06:02:39;;;;;;;7.35;4.15;;;;;;;23.19;74.66;100664.91;4953939;28;104040;-53
2022/08/23 06:05:06;;;;;;;7.28;3.95;;;;;;;23.20;74.93;100666.50;4955521;28;102167;-53
2022/08/23 06:07:34;;;;;;;8.32;3.88;;;;;;;23.20;74.95;100660.13;4954348;28;101921;-53
2022/08/23 06:10:01;;;;;;;8.23;3.25;;;;;;;23.20;74.70;100662.91;4959822;28;102121;-53
2022/08/23 06:12:30;;;;;;;6.50;4.05;;;;;;;23.21;74.49;100661.75;4953715;28;103948;-53
2022/08/23 06:14:56;;;;;;;10.85;4.00;;;;;;;23.23;74.86;100670.53;4951245;28;102341;-53
2022/08/23 06:17:23;;;;;;;9.07;4.05;;;;;;;23.24;74.47;100672.94;4955224;28;102028;-53
2022/08/23 06:19:49;;;;;;;14.18;4.20;;;;;;;23.28;74.16;100675.81;4957029;28;102596;-52
2022/08/23 06:22:16;;;;;;;8.30;4.13;;;;;;;23.30;74.13;100681.81;4955332;28;103897;-52
2022/08/23 06:24:43;;;;;;;7.88;4.53;;;;;;;23.33;74.08;100681.06;4958126;28;102311;-52
2022/08/23 06:27:10;;;;;;;8.55;3.83;;;;;;;23.33;74.21;100685.81;4955474;28;101920;-52
2022/08/23 06:29:38;;;;;;;9.00;4.28;;;;;;;23.32;74.13;100673.91;4950715;27;102217;-52
2022/08/23 06:32:05;;;;;;;7.03;4.15;;;;;;;23.32;74.33;100678.66;4957857;28;103784;-52
2022/08/23 06:34:34;;;;;;;9.30;3.88;;;;;;;23.32;74.38;100684.22;4959281;28;101955;-52
2022/08/23 06:37:01;;;;;;;;;;;;;;;23.32;74.37;100689.78;4959518;28;102811;-52
2022/08/23 06:39:30;;;;;;;10.13;3.87;;;;;;;23.33;74.26;100677.50;4960281;27;102249;-52
2022/08/23 06:41:59;;;;;;;7.70;3.72;;;;;;;23.34;74.12;100682.72;4958136;28;107988;-51
2022/08/23 06:44:26;;;;;;;6.80;3.92;;;;;;;23.35;73.91;100683.50;4959206;28;101907;-51
2022/08/23 06:46:57;;;;;;;8.98;4.00;;;;;;;23.36;74.25;100685.13;4953957;28;101896;-52
2022/08/23 06:49:26;;;;;;;7.35;3.80;;;;;;;23.38;74.38;100691.94;4959215;28;102999;-52
2022/08/23 06:51:55;;;;;;;;;;;;;;;23.38;74.26;100693.91;4941255;28;103969;-51
2022/08/23 06:54:22;;;;;;;;;;;;;;;23.39;74.21;100693.53;4955151;28;102065;-52
2022/08/23 06:56:48;;;;;;;;;;;;;;;23.48;74.11;100693.38;4955432;28;102444;-51
2022/08/23 06:59:16;;;;;;;13.13;5.07;;;;;;;23.63;73.54;100700.88;4950459;28;102529;-54
2022/08/23 07:01:47;;;;;;;25.25;5.10;;;;;;;23.76;73.37;100698.00;4953135;28;104189;-52
2022/08/23 07:04:17;;;;;;;44.33;6.18;;;;;;;23.74;73.61;100696.41;4955018;28;102213;-51
2022/08/23 07:06:45;;;;;;;13.70;3.78;;;;;;;23.65;73.79;100692.97;4975531;27;101987;-51
2022/08/23 07:09:12;;;;;;;17.33;4.80;;;;;;;23.62;73.71;100695.66;4979302;28;102097;-51
2022/08/23 07:11:40;;;;;;;15.17;3.80;;;;;;;23.63;73.77;100694.50;4960448;28;104070;-51
2022/08/23 07:14:09;;;;;;;19.98;3.97;;;;;;;23.65;73.57;100692.97;4953061;28;102235;-51
2022/08/23 07:16:38;;;;;;;15.05;4.68;;;;;;;23.61;73.79;100697.63;4951446;28;102244;-51
2022/08/23 07:19:05;;;;;;;14.10;3.67;;;;;;;23.62;73.75;100693.72;4955056;28;102234;-50
2022/08/23 07:21:32;;;;;;;;;;;;;;;23.68;73.64;100697.84;4950350;28;103766;-49
2022/08/23 07:23:59;;;;;;;156.27;83.25;;;;;;;23.79;73.47;100698.09;4951653;28;102742;-50
2022/08/23 07:26:26;;;;;;;22.65;5.55;;;;;;;23.99;73.09;100696.19;4951991;28;101984;-50
2022/08/23 07:28:53;;;;;;;52.35;8.55;;;;;;;23.88;73.48;100695.13;4955560;28;103626;-50
2022/08/23 07:31:22;;;;;;;104.97;16.30;;;;;;;23.83;73.72;100693.41;4952331;28;103482;-53
2022/08/23 07:33:49;;;;;;;71.13;9.40;;;;;;;23.89;73.77;100693.97;4948865;28;103718;-50
2022/08/23 07:36:19;;;;;;;44.15;8.50;;;;;;;23.84;73.79;100694.22;4951072;28;102324;-50
2022/08/23 07:38:47;;;;;;;57.88;9.32;;;;;;;23.81;73.73;100700.53;4957178;28;102458;-50
2022/08/23 07:41:14;;;;;;;44.42;9.35;;;;;;;23.80;73.59;100701.66;4960851;28;103903;-50
2022/08/23 07:43:41;;;;;;;51.35;9.20;;;;;;;23.78;73.71;100698.47;4956577;28;102103;-50
2022/08/23 07:46:08;;;;;;;54.33;10.90;;;;;;;23.77;73.66;100696.88;4954985;27;102207;-50
2022/08/23 07:48:35;;;;;;;45.50;9.65;;;;;;;23.76;73.80;100698.00;4956556;28;102169;-50
2022/08/23 07:51:04;;;;;;;43.08;10.05;;;;;;;23.73;73.86;100692.03;4964562;28;103896;-50
2022/08/23 07:53:31;;;;;;;35.30;9.40;;;;;;;23.76;73.94;100696.03;4960687;28;102320;-50
2022/08/23 07:56:02;;;;;;;40.20;9.68;;;;;;;23.73;73.79;100700.34;5037847;27;102256;-50
2022/08/23 07:58:29;;;;;;;44.35;9.70;;;;;;;23.74;73.61;100695.59;4995024;27;102298;-50
2022/08/23 08:00:55;;;;;;;29.92;9.43;;;;;;;23.74;73.57;100690.03;4951514;28;103935;-50
2022/08/23 08:03:22;;;;;;;36.15;8.80;;;;;;;23.74;73.90;100696.41;4960571;28;101858;-50
2022/08/23 08:05:48;;;;;;;28.67;7.80;;;;;;;23.75;73.66;100697.22;4955054;27;102252;-50
2022/08/23 08:08:15;;;;;;;38.03;8.25;;;;;;;23.76;73.54;100696.03;4954665;28;102188;-50
2022/08/23 08:10:42;;;;;;;;;;;;;;;23.74;73.70;100696.41;4954631;28;103892;-50
2022/08/23 08:13:10;;;;;;;33.75;8.55;;;;;;;23.74;74.08;100698.38;4954505;28;102321;-50
2022/08/23 08:15:40;;;;;;;32.22;8.32;;;;;;;23.73;73.63;100700.34;4955362;27;102129;-49
2022/08/23 08:18:07;;;;;;;26.42;8.18;;;;;;;23.76;74.04;100700.78;4962042;27;102286;-50
2022/08/23 08:20:35;;;;;;;27.52;7.32;;;;;;;23.77;73.66;100705.19;5057288;27;103874;-50
2022/08/23 08:23:02;;;;;;;26.30;9.05;;;;;;;23.78;73.50;100706.81;5057850;27;102297;-50
2022/08/23 08:25:32;;;;;;;26.70;8.27;;;;;;;23.78;73.79;100702.03;5045511;27;102300;-50
2022/08/23 08:28:00;;;;;;;29.02;8.35;;;;;;;23.78;73.35;100704.81;4967554;28;102378;-50
2022/08/23 08:30:28;;;;;;;27.17;7.95;;;;;;;23.77;73.44;100705.19;4947582;28;103975;-50
2022/08/23 08:32:54;;;;;;;23.27;8.40;;;;;;;23.78;73.63;100712.34;4952594;28;102518;-50
2022/08/23 08:35:21;;;;;;;23.38;7.60;;;;;;;23.79;73.47;100711.97;4953943;28;104586;-50
2022/08/23 08:37:47;;;;;;;21.10;7.20;;;;;;;23.79;73.72;100713.97;4955714;28;102215;-50
2022/08/23 08:40:23;;;;;;;23.65;7.47;;;;;;;23.81;73.44;100711.66;4959577;28;104095;-50
2022/08/23 08:43:05;;;;;;;28.58;8.15;;;;;;;23.81;73.41;100706.09;4955008;28;102294;-50
2022/08/23 08:45:44;;;;;;;21.45;7.18;;;;;;;23.79;73.39;100713.97;4938334;28;102205;-50
2022/08/23 08:48:14;;;;;;;30.02;8.02;;;;;;;23.81;73.26;100711.66;4934887;28;102372;-50
2022/08/23 08:50:46;;;;;;;17.10;6.22;;;;;;;23.81;73.40;100711.66;4949380;28;103869;-50
2022/08/23 08:53:18;;;;;;;18.58;7.20;;;;;;;23.79;73.51;100711.97;4958632;28;102107;-50
2022/08/23 08:55:48;;;;;;;20.05;6.63;;;;;;;23.81;73.23;100718.00;4935614;28;102375;-50
2022/08/23 08:58:22;;;;;;;19.10;6.88;;;;;;;23.82;73.49;100718.81;4960528;28;102336;-49
2022/08/23 09:00:50;;;;;;;27.75;7.43;;;;;;;23.80;73.33;100723.91;4948617;28;103943;-50
2022/08/23 09:03:19;;;;;;;20.15;6.43;;;;;;;23.79;73.25;100717.53;4961420;28;102619;-50
2022/08/23 09:05:51;;;;;;;;;;;;;;;23.79;73.51;100714.75;4954733;28;102228;-50
2022/08/23 09:08:40;;;;;;;20.40;6.53;;;;;;;23.81;73.38;100717.19;4955954;28;102177;-50
2022/08/23 09:11:21;;;;;;;18.85;6.15;;;;;;;23.79;73.47;100723.09;4935371;28;103893;-50
2022/08/23 09:14:07;;;;;;;16.30;6.78;;;;;;;23.80;73.45;100723.91;4935628;28;102329;-50
2022/08/23 09:16:47;;;;;;;15.93;6.28;;;;;;;23.79;73.47;100725.88;4952305;28;101888;-49
2022/08/23 09:19:13;;;;;;;;;;;;;;;23.78;73.35;100724.28;4943242;28;102515;-49
2022/08/23 09:21:45;;;;;;;16.77;6.23;;;;;;;23.79;73.39;100725.09;4956226;28;103827;-49
2022/08/23 09:24:12;;;;;;;18.65;5.60;;;;;;;23.77;73.80;100724.66;4956827;28;101933;-50
2022/08/23 09:26:40;;;;;;;14.02;6.18;;;;;;;23.73;73.29;100722.59;4955896;28;102026;-50
2022/08/23 09:29:20;;;;;;;18.98;5.85;;;;;;;23.73;73.51;100730.13;4957311;28;102177;-49
2022/08/23 09:31:51;;;;;;;15.57;6.07;;;;;;;23.70;73.33;100731.63;4956096;27;103929;-50
2022/08/23 09:34:21;;;;;;;15.32;5.78;;;;;;;23.71;73.35;100733.25;4956625;28;102072;-50
2022/08/23 09:36:47;;;;;;;20.98;6.55;;;;;;;23.70;73.50;100733.63;4937138;28;101920;-50
2022/08/23 09:39:27;;;;;;;18.42;5.85;;;;;;;23.72;73.40;100731.25;4955454;28;102127;-50
2022/08/23 09:41:54;;;;;;;20.35;7.22;;;;;;;23.73;73.37;100733.69;4955195;28;103921;-50
2022/08/23 09:44:34;;;;;;;15.43;6.25;;;;;;;23.74;73.37;100729.75;4956811;28;102139;-50
2022/08/23 09:47:07;;;;;;;17.42;6.25;;;;;;;23.73;73.57;100744.81;4955670;28;102038;-50
2022/08/23 09:49:34;;;;;;;19.33;6.50;;;;;;;23.73;73.16;100739.25;4956741;28;102015;-50
2022/08/23 09:52:11;;;;;;;23.02;6.55;;;;;;;23.75;73.31;100747.22;4952037;28;103929;-49
2022/08/23 09:54:41;;;;;;;29.52;7.82;;;;;;;23.78;73.32;100745.72;4946597;28;102182;-50
2022/08/23 09:57:09;;;;;;;27.20;7.75;;;;;;;23.78;73.31;100742.94;4955403;28;102136;-50
2022/08/23 09:59:41;;;;;;;40.70;7.60;;;;;;;23.76;73.29;100743.28;4956772;28;102115;-50
2022/08/23 10:02:16;;;;;;;27.90;6.55;;;;;;;23.77;73.46;100741.31;4956363;28;103821;-50
2022/08/23 10:04:45;;;;;;;33.70;7.30;;;;;;;23.79;73.20;100747.31;4967170;28;102156;-50
2022/08/23 10:07:34;;;;;;;39.97;8.25;;;;;;;23.79;73.29;100747.31;4955526;28;102177;-50
2022/08/23 10:10:19;;;;;;;46.30;8.20;;;;;;;23.81;73.28;100740.22;4954248;28;102091;-50
2022/08/23 10:12:46;;;;;;;44.15;8.55;;;;;;;23.81;73.46;100733.88;4954525;28;104566;-50
2022/08/23 10:15:14;;;;;;;43.13;9.27;;;;;;;23.78;73.42;100738.16;4946564;28;102734;-50
2022/08/23 10:17:51;;;;;;;47.47;9.27;;;;;;;23.78;73.51;100748.47;4973142;27;102085;-50
2022/08/23 10:20:27;;;;;;;;;;;;;;;23.78;73.53;100743.72;4976580;27;102095;-50
2022/08/23 10:23:03;;;;;;;41.15;9.73;;;;;;;23.80;73.76;100743.34;4974509;28;104569;-50
2022/08/23 10:25:37;;;;;;;45.22;9.07;;;;;;;23.82;73.43;100746.59;4942564;28;102000;-50
2022/08/23 10:31:01;;;;;;;51.47;10.00;;;;;;;23.81;73.50;100740.22;4955706;27;102893;-50
2022/08/23 10:33:39;;;;;;;56.90;9.52;;;;;;;23.80;73.36;100735.84;4954093;27;104317;-50
2022/08/23 10:36:13;;;;;;;51.37;10.23;;;;;;;23.81;73.52;100739.44;4955183;28;102260;-50
2022/08/23 10:38:44;;;;;;;49.55;9.30;;;;;;;23.81;73.50;100739.44;4935979;28;102052;-50
2022/08/23 10:41:27;;;;;;;53.20;8.63;;;;;;;23.83;73.53;100745.41;4952651;28;102185;-50
2022/08/23 10:44:10;;;;;;;57.72;9.98;;;;;;;23.82;73.48;100744.63;4953116;28;104021;-50
2022/08/23 10:46:45;;;;;;;50.80;10.38;;;;;;;23.81;73.67;100743.00;4938508;28;102416;-50
2022/08/23 10:49:15;;;;;;;45.70;9.25;;;;;;;23.80;73.67;100757.25;4955120;28;101866;-50
2022/08/23 10:51:43;;;;;;;58.45;9.88;;;;;;;23.80;73.74;100757.25;4956257;28;102183;-50
2022/08/23 10:54:17;;;;;;;49.95;9.95;;;;;;;23.79;73.54;100753.66;4964220;28;104170;-50
2022/08/23 10:56:44;;;;;;;45.33;9.23;;;;;;;23.79;73.79;100763.97;4974225;28;102050;-50
2022/08/23 10:59:14;;;;;;;52.00;9.68;;;;;;;23.78;73.69;100756.81;4971995;28;102099;-50
2022/08/23 11:01:49;;;;;;;37.50;9.43;;;;;;;23.76;73.48;100768.28;4955764;28;101925;-50
2022/08/23 11:04:31;;;;;;;46.55;9.70;;;;;;;23.78;73.60;100762.38;4954607;28;103653;-50
2022/08/23 11:06:59;;;;;;;50.95;9.57;;;;;;;23.80;73.50;100762.81;4955153;28;102388;-50
2022/08/23 11:09:45;;;;;;;45.92;9.23;;;;;;;23.78;73.70;100763.19;4954411;28;102300;-50
2022/08/23 11:12:21;;;;;;;42.42;9.15;;;;;;;23.79;73.67;100761.19;4957928;28;102265;-50
2022/08/23 11:15:02;;;;;;;54.40;8.95;;;;;;;23.77;73.58;100755.22;4939206;27;104031;-50
2022/08/23 11:17:33;;;;;;;43.88;8.80;;;;;;;23.77;73.66;100764.34;4946936;27;101963;-49
2022/08/23 11:20:07;;;;;;;51.50;9.25;;;;;;;23.76;73.54;100748.03;4951982;28;103172;-50
2022/08/23 11:23:17;;;;;;;58.00;11.07;;;;;;;23.77;73.63;100761.56;4978261;28;101993;-50
2022/08/23 11:25:44;;;;;;;46.58;9.60;;;;;;;23.79;73.50;100761.19;4960599;28;103982;-50
2022/08/23 11:28:38;;;;;;;45.17;8.73;;;;;;;23.80;73.69;100757.25;4977602;28;101823;-50
2022/08/23 11:31:22;;;;;;;46.08;9.43;;;;;;;23.79;73.50;100758.44;4973595;28;102188;-50
2022/08/23 11:33:51;;;;;;;49.47;9.73;;;;;;;23.76;73.35;100756.34;4955223;28;102198;-50
2022/08/23 11:36:22;;;;;;;49.65;10.95;;;;;;;23.74;73.44;100757.53;4937669;28;104013;-50
2022/08/23 11:39:16;;;;;;;47.65;9.45;;;;;;;23.73;73.62;100747.59;4942100;28;102080;-50